Time;durP1;ratioP1;P1;durP2;ratioP2;P2;SDS_P1;SDS_P2;PMS_P1;PMS_P2;Temp;Humidity;BMP_temperature;BMP_pressure;BME280_temperature;BME280_humidity;BME280_pressure;Samples;Min_cycle;Max_cycle;Signal;HPM_P1;HPM_P2
2022/05/04 00:00:43;;;;;;;0.70;0.70;;;11.70;84.20;11.00;98198.00;;;;5135020;28;20196;-78
2022/05/04 00:03:09;;;;;;;0.70;0.70;;;11.60;85.10;11.00;98191.00;;;;5139564;28;20287;-79
2022/05/04 00:05:36;;;;;;;1.20;1.10;;;11.70;85.20;11.00;98184.00;;;;5135575;28;20212;-77
2022/05/04 00:08:04;;;;;;;1.10;1.07;;;11.70;85.40;11.00;98182.00;;;;5134664;28;20298;-77
2022/05/04 00:10:31;;;;;;;1.40;1.30;;;11.60;85.10;10.90;98186.00;;;;5134730;28;20224;-77
2022/05/04 00:12:58;;;;;;;1.00;1.00;;;11.60;85.40;10.70;98186.00;;;;5134612;28;20714;-78
2022/05/04 00:15:27;;;;;;;0.97;0.97;;;11.50;85.40;10.70;98190.00;;;;5134703;28;20253;-78
2022/05/04 00:17:53;;;;;;;0.97;0.97;;;11.40;86.70;10.60;98192.00;;;;5134478;28;20221;-77
2022/05/04 00:20:20;;;;;;;0.93;0.93;;;11.40;87.50;10.70;98190.00;;;;5134544;28;20523;-78
2022/05/04 00:22:48;;;;;;;0.83;0.83;;;11.40;89.10;10.80;98195.00;;;;5134445;28;20227;-77
2022/05/04 00:25:14;;;;;;;0.90;0.90;;;11.40;89.10;10.60;98190.00;;;;5134586;28;20284;-76
2022/05/04 00:27:41;;;;;;;2.37;1.10;;;11.40;88.80;10.70;98183.00;;;;5134303;28;20303;-77
2022/05/04 00:30:08;;;;;;;1.33;1.00;;;11.30;88.80;10.70;98195.00;;;;5138841;28;20500;-78
2022/05/04 00:32:37;;;;;;;1.27;1.27;;;11.30;88.70;10.60;98187.00;;;;5134498;28;20233;-77
2022/05/04 00:35:08;;;;;;;1.80;1.70;;;11.30;89.20;10.60;98192.00;;;;5134495;28;20655;-77
2022/05/04 00:37:37;;;;;;;0.80;0.80;;;11.20;89.00;10.60;98184.00;;;;5134245;28;20682;-77
2022/05/04 00:40:06;;;;;;;1.40;1.30;;;11.20;89.20;10.60;98190.00;;;;5134363;28;20213;-77
2022/05/04 00:42:33;;;;;;;0.80;0.80;;;11.30;89.60;10.60;98184.00;;;;5134225;28;20304;-76
2022/05/04 00:44:59;;;;;;;0.70;0.70;;;11.20;89.00;10.60;98183.00;;;;5134285;28;20224;-78
2022/05/04 00:47:26;;;;;;;1.57;1.50;;;11.20;89.10;10.60;98169.00;;;;5134181;28;20274;-78
2022/05/04 00:49:56;;;;;;;0.70;0.70;;;11.20;89.30;10.60;98181.00;;;;5134189;28;20225;-77
2022/05/04 00:52:25;;;;;;;1.10;1.10;;;11.20;89.00;10.50;98174.00;;;;5115898;28;20225;-77
2022/05/04 00:54:54;;;;;;;2.10;1.43;;;11.20;89.10;10.50;98165.00;;;;5134227;28;20229;-78
2022/05/04 01:00:05;;;;;;;1.00;0.93;;;11.10;89.60;10.50;98172.00;;;;5136337;27;20284;-76
2022/05/04 01:02:32;;;;;;;0.70;0.70;;;11.10;89.90;10.40;98151.00;;;;5137564;28;20652;-77
2022/05/04 01:05:01;;;;;;;0.80;0.80;;;11.10;89.80;10.30;98171.00;;;;5137741;28;20292;-77
2022/05/04 01:07:27;;;;;;;1.00;1.00;;;11.00;90.20;10.30;98173.00;;;;5137462;28;20232;-77
2022/05/04 01:09:54;;;;;;;0.60;0.60;;;11.00;90.30;10.30;98183.00;;;;5137502;28;20280;-77
2022/05/04 01:12:23;;;;;;;1.17;1.17;;;11.00;90.30;10.30;98180.00;;;;5137375;28;20193;-77
2022/05/04 01:14:50;;;;;;;1.30;1.27;;;11.00;90.70;10.30;98183.00;;;;5137655;28;20640;-77
2022/05/04 01:17:16;;;;;;;2.07;1.87;;;11.00;90.30;10.40;98187.00;;;;5137726;28;20224;-77
2022/05/04 01:19:43;;;;;;;1.10;1.10;;;11.00;90.60;10.30;98185.00;;;;5119174;28;20228;-77
2022/05/04 01:22:10;;;;;;;29.07;2.37;;;11.00;90.60;10.20;98183.00;;;;5137291;28;20262;-78
2022/05/04 01:24:39;;;;;;;0.73;0.73;;;10.90;91.00;10.20;98189.00;;;;5137282;28;20649;-78
2022/05/04 01:27:11;;;;;;;0.93;0.93;;;10.90;91.30;10.20;98184.00;;;;5137175;28;20189;-78
2022/05/04 01:29:37;;;;;;;0.90;0.90;;;10.90;91.60;10.10;98190.00;;;;5137249;28;20189;-77
2022/05/04 01:32:06;;;;;;;0.90;0.90;;;10.80;91.90;10.10;98188.00;;;;5137413;28;20205;-78
2022/05/04 01:34:33;;;;;;;0.97;0.97;;;10.70;92.40;10.30;98187.00;;;;5120697;28;20197;-77
2022/05/04 01:37:00;;;;;;;2.57;1.67;;;10.80;92.70;10.20;98177.00;;;;5137131;28;20647;-77
2022/05/04 01:39:28;;;;;;;2.73;1.63;;;10.90;92.10;10.10;98186.00;;;;5137029;28;20357;-77
2022/05/04 01:42:06;;;;;;;0.87;0.87;;;10.80;91.60;10.10;98182.00;;;;5136907;28;20644;-77
2022/05/04 01:44:34;;;;;;;0.70;0.70;;;10.80;91.90;10.10;98180.00;;;;5137143;28;20228;-77
2022/05/04 01:47:02;;;;;;;1.33;1.27;;;10.70;92.20;10.00;98185.00;;;;5136968;28;20186;-77
2022/05/04 01:49:28;;;;;;;0.93;0.93;;;10.70;91.70;9.80;98191.00;;;;5137020;28;20288;-77
2022/05/04 01:51:55;;;;;;;1.53;1.43;;;10.60;90.90;9.70;98193.00;;;;5136667;28;20523;-78
2022/05/04 01:54:22;;;;;;;1.07;1.07;;;10.50;91.80;9.80;98199.00;;;;5136652;28;20690;-78
2022/05/04 01:56:50;;;;;;;0.77;0.77;;;10.50;92.40;9.80;98197.00;;;;5118805;28;20200;-78
2022/05/04 01:59:19;;;;;;;0.60;0.60;;;10.50;92.60;9.70;98191.00;;;;5136486;28;20316;-78
2022/05/04 02:01:46;;;;;;;0.83;0.83;;;10.40;92.70;9.70;98188.00;;;;5136827;28;20231;-77
2022/05/04 02:04:14;;;;;;;0.80;0.80;;;10.40;93.50;9.70;98185.00;;;;5136537;28;20221;-77
2022/05/04 02:06:43;;;;;;;1.27;1.17;;;10.40;93.50;9.70;98188.00;;;;5118320;28;20205;-76
2022/05/04 02:09:10;;;;;;;0.70;0.70;;;10.40;92.70;9.60;98184.00;;;;5136348;28;20297;-77
2022/05/04 02:11:39;;;;;;;1.13;1.13;;;10.40;92.80;9.50;98184.00;;;;5136110;27;20656;-77
2022/05/04 02:14:06;;;;;;;0.70;0.70;;;10.30;93.20;9.60;98186.00;;;;5136314;28;20308;-78
2022/05/04 02:16:33;;;;;;;3.43;1.63;;;10.30;93.60;9.60;98189.00;;;;5136608;28;20201;-78
2022/05/04 02:19:00;;;;;;;1.43;1.43;;;10.20;93.70;9.40;98191.00;;;;5136205;28;20248;-78
2022/05/04 02:21:28;;;;;;;1.20;1.20;;;10.20;93.80;9.50;98187.00;;;;5136273;28;20228;-76
2022/05/04 02:23:55;;;;;;;1.23;1.20;;;10.20;94.30;9.50;98187.00;;;;5136201;28;20231;-77
2022/05/04 02:26:21;;;;;;;1.10;1.10;;;10.20;94.60;9.40;98193.00;;;;5136229;28;20225;-77
2022/05/04 02:28:50;;;;;;;1.73;1.63;;;10.20;94.90;9.40;98181.00;;;;5136018;28;20225;-78
2022/05/04 02:31:17;;;;;;;1.20;1.20;;;10.10;95.70;9.50;98187.00;;;;5136110;28;20194;-75
2022/05/04 02:33:44;;;;;;;1.00;1.00;;;10.20;95.40;9.40;98181.00;;;;5135989;28;20668;-76
2022/05/04 02:38:56;;;;;;;1.47;0.87;;;10.10;95.80;9.40;98186.00;;;;5135951;28;20225;-76
2022/05/04 02:41:23;;;;;;;1.27;1.27;;;10.10;95.70;9.20;98182.00;;;;5136022;28;20532;-78
2022/05/04 02:43:49;;;;;;;1.50;1.40;;;10.00;96.10;9.30;98184.00;;;;5135863;28;20217;-78
2022/05/04 02:46:22;;;;;;;0.90;0.90;;;10.00;96.70;9.50;98177.00;;;;5135926;28;20201;-76
2022/05/04 02:48:51;;;;;;;1.90;1.63;;;10.20;96.60;9.60;98179.00;;;;5135865;28;20217;-78
2022/05/04 02:51:18;;;;;;;1.57;1.47;;;10.20;97.20;9.50;98160.00;;;;5136072;28;20189;-77
2022/05/04 02:53:44;;;;;;;1.27;1.27;;;10.20;96.20;9.50;98175.00;;;;5135715;28;20638;-78
2022/05/04 02:56:15;;;;;;;2.07;1.70;;;10.10;96.80;9.60;98185.00;;;;5135674;28;20628;-77
2022/05/04 02:58:42;;;;;;;1.30;1.30;;;10.20;97.00;9.60;98174.00;;;;5135776;28;20327;-77
2022/05/04 03:03:59;;;;;;;1.07;1.07;;;10.30;97.10;9.60;98186.00;;;;5135519;28;20509;-76
2022/05/04 03:06:25;;;;;;;2.00;1.43;;;10.30;96.50;9.70;98176.00;;;;5135613;28;20204;-78
2022/05/04 03:08:52;;;;;;;1.73;1.63;;;10.30;96.20;9.80;98171.00;;;;5135473;28;20189;-77
2022/05/04 03:14:07;;;;;;;0.90;0.90;;;10.50;95.80;9.90;98169.00;;;;5135310;28;20200;-78
2022/05/04 03:16:34;;;;;;;1.23;1.23;;;10.50;95.80;9.90;98169.00;;;;5135398;28;20181;-77
2022/05/04 03:19:01;;;;;;;1.20;1.20;;;10.60;95.50;9.90;98178.00;;;;5135116;28;20216;-77
2022/05/04 03:21:27;;;;;;;1.47;1.40;;;10.60;95.70;10.00;98172.00;;;;5135584;28;20192;-78
2022/05/04 03:23:57;;;;;;;5.03;1.83;;;10.60;95.80;9.90;98164.00;;;;5134428;28;20525;-77
2022/05/04 03:26:24;;;;;;;2.13;1.20;;;10.70;95.80;9.90;98161.00;;;;5135308;28;20209;-78
2022/05/04 03:28:51;;;;;;;0.93;0.93;;;10.60;96.20;10.00;98176.00;;;;5135183;28;20197;-78
2022/05/04 03:31:18;;;;;;;0.70;0.70;;;10.60;96.10;10.00;98172.00;;;;5135201;28;20202;-77
2022/05/04 03:33:44;;;;;;;1.30;1.27;;;10.70;96.10;10.00;98172.00;;;;5135122;28;20197;-77
2022/05/04 03:36:12;;;;;;;1.10;1.00;;;10.70;96.60;10.10;98172.00;;;;5116976;28;20216;-78
2022/05/04 03:38:38;;;;;;;1.10;1.10;;;10.70;97.00;10.00;98123.00;;;;5135044;28;20301;-77
2022/05/04 03:41:05;;;;;;;1.13;1.13;;;10.70;97.60;10.00;98179.00;;;;5135061;28;20706;-78
2022/05/04 03:43:31;;;;;;;1.47;1.47;;;10.70;97.90;10.00;98170.00;;;;5135730;28;20200;-77
2022/05/04 03:46:13;;;;;;;0.97;0.97;;;10.70;98.30;10.00;98173.00;;;;5135270;28;20304;-77
2022/05/04 03:48:39;;;;;;;1.00;1.00;;;10.70;98.60;10.00;98161.00;;;;5135060;28;20189;-77
2022/05/04 03:51:06;;;;;;;1.00;1.00;;;10.70;98.70;10.20;98168.00;;;;5134932;28;20201;-77
2022/05/04 03:53:33;;;;;;;1.63;1.53;;;10.80;98.30;10.20;98172.00;;;;5134936;28;20276;-77
2022/05/04 03:55:59;;;;;;;2.93;1.20;;;10.90;98.20;10.20;98172.00;;;;5134811;28;20308;-78
2022/05/04 03:58:26;;;;;;;2.07;1.30;;;10.90;98.10;10.30;98176.00;;;;5134726;28;20220;-78
2022/05/04 04:00:52;;;;;;;0.97;0.97;;;10.90;98.20;10.30;98172.00;;;;5134711;28;20281;-77
2022/05/04 04:03:19;;;;;;;1.30;1.23;;;10.90;97.80;10.30;98172.00;;;;5134650;28;20193;-76
2022/05/04 04:05:45;;;;;;;1.80;1.50;;;11.00;96.80;10.20;98177.00;;;;5134636;28;20540;-79
2022/05/04 04:08:12;;;;;;;1.53;1.43;;;10.90;95.40;10.20;98150.00;;;;5134667;28;20201;-78
2022/05/04 04:10:40;;;;;;;1.90;1.10;;;10.90;95.70;10.30;98167.00;;;;5134501;28;20213;-78
2022/05/04 04:13:06;;;;;;;1.07;1.07;;;11.00;96.00;10.20;98167.00;;;;5134845;28;20204;-78
2022/05/04 04:15:33;;;;;;;1.23;1.20;;;10.90;96.70;10.20;98176.00;;;;5134415;28;20519;-78
2022/05/04 04:18:02;;;;;;;1.50;1.47;;;10.90;96.80;10.30;98170.00;;;;5134537;28;20213;-78
2022/05/04 04:23:13;;;;;;;1.00;1.00;;;11.00;97.00;10.40;98178.00;;;;5134448;28;20193;-78
2022/05/04 04:25:41;;;;;;;1.53;1.43;;;11.00;97.00;10.60;98179.00;;;;5116272;28;20248;-78
2022/05/04 04:28:07;;;;;;;1.13;1.07;;;11.10;96.70;10.60;98175.00;;;;5134473;28;20201;-78
2022/05/04 04:30:34;;;;;;;1.03;1.03;;;11.20;96.10;10.60;98189.00;;;;5116309;28;20613;-78
2022/05/04 04:33:00;;;;;;;1.03;1.03;;;11.20;96.50;10.40;98179.00;;;;5134337;28;20284;-78
2022/05/04 04:35:27;;;;;;;1.20;1.17;;;11.10;95.40;10.50;98192.00;;;;5137753;27;20316;-77
2022/05/04 04:37:53;;;;;;;0.97;0.97;;;11.10;95.10;10.40;98193.00;;;;5137877;28;20193;-77
2022/05/04 04:40:20;;;;;;;0.77;0.77;;;11.10;95.80;10.60;98200.00;;;;5137862;28;20197;-78
2022/05/04 04:42:47;;;;;;;1.13;1.13;;;11.20;95.20;10.60;98197.00;;;;5138005;28;20249;-78
2022/05/04 04:45:17;;;;;;;0.80;0.80;;;11.20;95.60;10.70;98208.00;;;;5138053;28;20351;-78
2022/05/04 04:47:46;;;;;;;1.60;1.50;;;11.30;95.70;10.70;98212.00;;;;5137933;28;20280;-78
2022/05/04 04:50:13;;;;;;;1.30;1.27;;;11.30;94.80;10.70;98206.00;;;;5137945;28;20254;-77
2022/05/04 04:52:40;;;;;;;1.00;1.00;;;11.30;94.30;10.60;98206.00;;;;5137780;28;20284;-77
2022/05/04 04:55:08;;;;;;;1.00;1.00;;;11.30;94.20;10.60;98220.00;;;;5119722;28;20628;-77
2022/05/04 04:57:35;;;;;;;1.43;1.33;;;11.20;94.40;10.60;98219.00;;;;5137947;28;20193;-78
2022/05/04 05:00:03;;;;;;;0.87;0.87;;;11.30;94.90;10.80;98212.00;;;;5138445;28;20239;-78
2022/05/04 05:02:29;;;;;;;1.67;1.57;;;11.30;95.40;10.80;98212.00;;;;5139792;28;20205;-78
2022/05/04 05:04:56;;;;;;;1.60;1.50;;;11.40;95.70;10.90;98201.00;;;;5122540;28;20197;-78
2022/05/04 05:07:23;;;;;;;1.40;1.40;;;11.50;95.40;10.90;98215.00;;;;5142630;28;20695;-78
2022/05/04 05:09:49;;;;;;;3.37;1.97;;;11.60;95.90;11.00;98203.00;;;;5142798;28;20221;-78
2022/05/04 05:12:16;;;;;;;1.03;1.03;;;11.60;94.80;11.00;98204.00;;;;5142212;28;20220;-78
2022/05/04 05:17:28;;;;;;;0.87;0.87;;;11.60;94.80;11.00;98213.00;;;;5137309;28;20231;-78
2022/05/04 05:19:54;;;;;;;1.43;1.33;;;11.60;95.10;11.10;98198.00;;;;5137299;28;20303;-78
2022/05/04 05:22:24;;;;;;;1.53;1.50;;;11.70;95.20;11.20;98200.00;;;;5137421;28;20717;-78
2022/05/04 05:24:51;;;;;;;1.37;1.37;;;11.70;94.90;11.30;98199.00;;;;5137373;28;20277;-78
2022/05/04 05:27:18;;;;;;;0.90;0.90;;;11.80;94.50;11.40;98209.00;;;;5137414;28;20225;-77
2022/05/04 05:29:44;;;;;;;1.20;1.20;;;11.90;94.90;11.20;98204.00;;;;5119282;28;20284;-76
2022/05/04 05:32:10;;;;;;;3.60;1.53;;;12.00;95.10;11.30;98193.00;;;;5137153;28;20300;-78
2022/05/04 05:34:37;;;;;;;0.73;0.73;;;11.90;94.80;11.30;98204.00;;;;5119505;28;20201;-78
2022/05/04 05:37:05;;;;;;;0.90;0.90;;;11.90;95.00;11.40;98208.00;;;;5137408;28;20232;-78
2022/05/04 05:39:31;;;;;;;2.30;1.87;;;11.90;95.00;11.40;98198.00;;;;5136942;28;20228;-79
2022/05/04 05:41:58;;;;;;;0.90;0.90;;;12.00;95.00;11.40;98203.00;;;;5136907;28;20224;-79
2022/05/04 05:44:25;;;;;;;1.13;1.13;;;12.00;94.90;11.40;98225.00;;;;5136870;28;20209;-78
2022/05/04 05:46:51;;;;;;;1.27;1.27;;;12.00;95.10;11.40;98214.00;;;;5136065;27;20305;-79
2022/05/04 05:49:20;;;;;;;1.27;1.27;;;12.10;95.80;11.40;98219.00;;;;5136811;28;20205;-79
2022/05/04 05:51:47;;;;;;;2.33;2.23;;;12.10;95.60;11.50;98213.00;;;;5118687;28;20225;-79
2022/05/04 05:54:16;;;;;;;0.80;0.80;;;12.10;95.10;11.60;98219.00;;;;5136767;28;20201;-79
2022/05/04 05:56:42;;;;;;;0.70;0.70;;;12.20;95.00;11.70;98214.00;;;;5136694;28;20255;-78
2022/05/04 05:59:09;;;;;;;0.90;0.90;;;12.20;94.80;11.60;98214.00;;;;5136694;28;20241;-79
2022/05/04 06:01:36;;;;;;;2.87;2.00;;;12.30;94.80;11.60;98217.00;;;;5136501;28;20245;-78
2022/05/04 06:04:02;;;;;;;0.60;0.60;;;12.20;95.40;11.70;98210.00;;;;5136717;28;20220;-78
2022/05/04 06:06:29;;;;;;;1.17;1.17;;;12.20;95.30;11.70;98212.00;;;;5136438;28;20193;-79
2022/05/04 06:08:56;;;;;;;1.07;1.07;;;12.30;95.60;11.80;98218.00;;;;5118633;28;20528;-78
2022/05/04 06:11:22;;;;;;;1.63;1.53;;;12.40;95.20;11.90;98221.00;;;;5136530;28;20201;-77
2022/05/04 06:13:52;;;;;;;1.77;1.67;;;12.40;96.10;11.90;98206.00;;;;5136440;28;20248;-77
2022/05/04 06:16:21;;;;;;;1.03;1.00;;;12.50;96.90;11.80;98229.00;;;;5136395;28;20286;-78
2022/05/04 06:18:47;;;;;;;1.63;1.10;;;12.50;95.80;11.90;98229.00;;;;5136325;28;20720;-79
2022/05/04 06:21:14;;;;;;;1.20;1.20;;;12.50;96.10;11.90;98226.00;;;;5136655;28;20292;-77
2022/05/04 06:23:41;;;;;;;3.60;1.43;;;12.50;96.70;11.70;98227.00;;;;5118164;28;20197;-78
2022/05/04 06:26:08;;;;;;;0.60;0.60;;;12.50;95.90;12.10;98204.00;;;;5136259;28;20250;-79
2022/05/04 06:28:34;;;;;;;1.20;1.20;;;12.60;96.20;12.00;98242.00;;;;5136099;28;20217;-78
2022/05/04 06:36:33;;;;;;;1.00;1.00;;;12.60;95.30;12.10;98240.00;;;;5136147;28;20212;-78
2022/05/04 06:39:00;;;;;;;1.03;1.03;;;12.70;95.10;12.10;98230.00;;;;5136076;28;20217;-77
2022/05/04 06:41:28;;;;;;;1.17;1.17;;;12.70;95.70;12.20;98245.00;;;;5136066;28;20254;-77
2022/05/04 06:43:54;;;;;;;1.20;1.13;;;12.80;96.30;12.20;98250.00;;;;5136029;28;20210;-79
2022/05/04 06:46:21;;;;;;;10.57;2.63;;;12.80;95.50;12.30;98246.00;;;;5135899;28;20228;-77
2022/05/04 06:48:50;;;;;;;1.20;1.20;;;12.80;94.90;12.30;98245.00;;;;5135991;28;20217;-79
2022/05/04 06:51:17;;;;;;;1.00;1.00;;;12.80;94.30;12.20;98248.00;;;;5135997;28;20221;-78
2022/05/04 06:53:43;;;;;;;1.23;1.23;;;12.80;95.20;12.40;98248.00;;;;5118000;28;20219;-78
2022/05/04 06:56:12;;;;;;;0.90;0.90;;;12.90;94.80;12.50;98257.00;;;;5136099;28;20204;-79
2022/05/04 06:58:39;;;;;;;1.33;1.30;;;13.00;94.90;12.70;98255.00;;;;5134608;27;20234;-79
2022/05/04 07:01:08;;;;;;;1.63;1.53;;;13.20;95.10;12.70;98254.00;;;;5135613;28;20201;-78
2022/05/04 07:03:34;;;;;;;1.43;1.43;;;13.30;93.70;12.90;98246.00;;;;5117435;28;20236;-78
2022/05/04 07:06:01;;;;;;;1.97;1.87;;;13.40;94.00;12.90;98259.00;;;;5117557;28;20299;-77
2022/05/04 07:08:27;;;;;;;1.50;1.40;;;13.40;94.00;13.00;98252.00;;;;5135543;28;20220;-79
2022/05/04 07:10:54;;;;;;;1.27;1.27;;;13.50;93.50;13.10;98259.00;;;;5135495;28;20242;-79
2022/05/04 07:13:21;;;;;;;1.20;1.20;;;13.60;93.30;13.10;98258.00;;;;5135498;28;20225;-78
2022/05/04 07:15:50;;;;;;;1.27;1.17;;;13.70;92.60;13.30;98261.00;;;;5135587;28;20204;-79
2022/05/04 07:18:19;;;;;;;0.70;0.70;;;13.70;91.40;13.40;98250.00;;;;5135419;28;20687;-77
2022/05/04 07:20:46;;;;;;;1.07;1.07;;;13.90;91.90;13.50;98255.00;;;;5135577;28;20197;-78
2022/05/04 07:23:12;;;;;;;1.10;1.10;;;;;13.50;98255.00;;;;5135613;28;20241;-79
2022/05/04 07:25:41;;;;;;;1.50;1.40;;;14.10;89.40;13.60;98264.00;;;;5135335;28;20658;-78
2022/05/04 07:28:08;;;;;;;1.50;1.40;;;14.10;90.10;13.60;98260.00;;;;5135232;28;20221;-78
2022/05/04 07:30:35;;;;;;;2.27;2.17;;;14.10;89.60;13.70;98263.00;;;;5117206;28;20212;-79
2022/05/04 07:33:02;;;;;;;0.87;0.87;;;14.20;90.10;13.90;98258.00;;;;5117086;28;20233;-80
2022/05/04 07:35:29;;;;;;;1.00;1.00;;;14.30;91.10;14.00;98260.00;;;;5135406;28;20178;-79
2022/05/04 07:37:55;;;;;;;1.63;1.53;;;14.40;92.10;14.00;98260.00;;;;5135332;28;20220;-79
2022/05/04 07:43:08;;;;;;;1.20;1.20;;;14.60;90.80;14.10;98260.00;;;;5116907;28;20691;-77
2022/05/04 07:45:37;;;;;;;2.53;1.33;;;14.60;91.50;14.10;98264.00;;;;5135429;28;20267;-78
2022/05/04 07:48:05;;;;;;;1.67;1.40;;;14.70;89.50;14.20;98265.00;;;;5138518;28;20223;-78
2022/05/04 07:50:31;;;;;;;3.03;1.93;;;14.70;89.40;14.30;98269.00;;;;5136483;28;20213;-78
2022/05/04 07:52:58;;;;;;;1.67;1.57;;;14.80;89.80;14.40;98258.00;;;;5116925;28;20523;-78
2022/05/04 07:55:24;;;;;;;1.03;1.03;;;14.80;89.50;14.60;98267.00;;;;5134917;28;20207;-78
2022/05/04 07:57:51;;;;;;;1.13;1.13;;;15.10;85.00;14.60;98263.00;;;;5134944;28;20193;-78
2022/05/04 08:05:48;;;;;;;1.30;1.20;;;15.10;86.00;14.90;98265.00;;;;5134864;28;20212;-78
2022/05/04 08:08:15;;;;;;;1.40;1.37;;;15.30;86.20;15.10;98274.00;;;;5134618;27;20209;-77
2022/05/04 08:10:44;;;;;;;1.43;1.40;;;15.50;84.00;15.30;98275.00;;;;5134899;28;20208;-78
2022/05/04 08:13:10;;;;;;;0.80;0.80;;;15.70;83.40;15.30;98275.00;;;;5134552;28;20201;-78
2022/05/04 08:15:39;;;;;;;1.07;1.07;;;15.70;83.20;15.50;98269.00;;;;5134592;28;20603;-79
2022/05/04 08:18:06;;;;;;;1.90;1.80;;;15.80;82.30;15.40;98282.00;;;;5134510;28;20655;-78
2022/05/04 08:20:33;;;;;;;1.53;1.43;;;15.80;82.00;15.40;98283.00;;;;5134695;28;20201;-78
2022/05/04 08:23:00;;;;;;;2.03;1.93;;;15.90;78.90;15.50;98282.00;;;;5116582;28;20257;-78
2022/05/04 08:25:27;;;;;;;1.67;1.57;;;15.90;77.20;15.50;98285.00;;;;5134967;28;20507;-78
2022/05/04 08:27:53;;;;;;;1.00;1.00;;;15.90;76.10;15.60;98286.00;;;;5134630;28;20189;-78
2022/05/04 08:30:20;;;;;;;1.17;1.17;;;16.00;76.50;15.70;98295.00;;;;5136134;28;20296;-77
2022/05/04 08:32:49;;;;;;;0.70;0.70;;;16.10;76.50;15.70;98286.00;;;;5134471;28;20194;-78
2022/05/04 08:35:17;;;;;;;1.03;1.03;;;16.20;75.30;15.70;98293.00;;;;5134406;28;20795;-79
2022/05/04 08:37:44;;;;;;;1.07;1.07;;;16.20;76.40;15.70;98293.00;;;;5134375;28;20254;-79
2022/05/04 08:40:12;;;;;;;1.43;1.37;;;16.10;72.10;15.80;98297.00;;;;5134127;28;20312;-79
2022/05/04 08:42:41;;;;;;;0.80;0.80;;;16.20;72.10;15.90;98295.00;;;;5116248;28;20209;-78
2022/05/04 08:45:11;;;;;;;1.30;1.30;;;16.30;69.20;15.90;98303.00;;;;5134228;28;20213;-79
2022/05/04 08:47:44;;;;;;;1.67;1.57;;;16.40;68.20;15.80;98310.00;;;;5134299;28;20205;-79
2022/05/04 08:50:16;;;;;;;1.10;1.10;;;16.30;67.40;15.90;98304.00;;;;5134180;28;20652;-78
2022/05/04 08:52:52;;;;;;;1.67;1.57;;;16.30;94.00;16.00;98298.00;;;;5116066;28;20296;-79
2022/05/04 08:55:19;;;;;;;1.13;1.13;;;16.40;68.90;16.00;98297.00;;;;5116141;28;20270;-78
2022/05/04 08:57:46;;;;;;;1.43;1.33;;;16.50;67.30;16.20;98304.00;;;;5134330;28;20203;-78
2022/05/04 09:00:14;;;;;;;1.67;1.57;;;16.50;68.60;16.30;98303.00;;;;5133935;28;20233;-79
2022/05/04 09:02:43;;;;;;;1.07;1.07;;;16.60;68.00;16.40;98300.00;;;;5134086;28;20189;-79
2022/05/04 09:05:20;;;;;;;1.77;1.67;;;16.70;67.20;16.50;98302.00;;;;5115838;28;20225;-79
2022/05/04 09:07:52;;;;;;;1.57;1.47;;;17.00;65.90;16.80;98299.00;;;;5134075;28;20197;-78
2022/05/04 09:10:21;;;;;;;0.70;0.70;;;17.00;64.00;16.60;98303.00;;;;5133881;28;20220;-79
2022/05/04 09:12:50;;;;;;;1.50;1.40;;;17.00;62.90;16.80;98293.00;;;;5134128;28;20282;-79
2022/05/04 09:15:20;;;;;;;3.27;1.47;;;17.10;63.60;16.70;98292.00;;;;5133784;28;20244;-79
2022/05/04 09:17:54;;;;;;;1.13;1.13;;;17.10;62.60;16.80;98285.00;;;;5133965;28;20212;-78
2022/05/04 09:23:12;;;;;;;1.10;1.10;;;17.30;60.50;16.90;98291.00;;;;5137399;28;20228;-77
2022/05/04 09:25:39;;;;;;;1.30;1.27;;;17.30;61.00;17.10;98297.00;;;;5137351;28;20667;-79
2022/05/04 09:28:11;;;;;;;1.60;1.50;;;17.40;59.50;17.10;98294.00;;;;5137301;28;20201;-77
2022/05/04 09:30:45;;;;;;;2.87;1.87;;;17.40;60.30;17.20;98293.00;;;;5137265;28;20221;-78
2022/05/04 09:33:16;;;;;;;1.13;1.13;;;17.50;59.30;17.10;98287.00;;;;5119633;28;20201;-78
2022/05/04 09:35:43;;;;;;;1.13;1.13;;;17.60;59.40;17.10;98299.00;;;;5137110;28;20245;-78
2022/05/04 09:46:42;;;;;;;1.40;1.30;;;17.40;59.60;17.00;98296.00;;;;5137092;28;20205;-77
2022/05/04 09:49:14;;;;;;;1.10;1.00;;;17.50;60.30;16.90;98293.00;;;;5137195;28;20189;-78
2022/05/04 09:51:45;;;;;;;1.43;1.33;;;17.30;59.20;17.00;98299.00;;;;5136865;28;20208;-78
2022/05/04 09:54:21;;;;;;;0.97;0.97;;;17.30;59.40;17.00;98294.00;;;;5136754;28;20288;-76
2022/05/04 09:56:53;;;;;;;1.23;1.23;;;17.40;58.90;17.00;98298.00;;;;5136797;28;20197;-78
2022/05/04 09:59:22;;;;;;;1.07;1.07;;;17.30;59.40;16.70;98300.00;;;;5136571;28;20242;-78
2022/05/04 10:01:51;;;;;;;2.03;1.50;;;17.30;59.10;16.80;98286.00;;;;5136704;28;20197;-77
2022/05/04 10:04:18;;;;;;;1.33;1.27;;;17.20;59.70;16.80;98289.00;;;;5136913;28;20268;-78
2022/05/04 10:06:45;;;;;;;1.57;1.47;;;17.30;59.40;16.90;98299.00;;;;5137261;28;20249;-78
2022/05/04 10:09:14;;;;;;;1.50;1.40;;;17.30;60.10;16.70;98295.00;;;;5144107;28;20193;-78
2022/05/04 10:11:41;;;;;;;1.63;1.17;;;17.20;59.60;16.90;98289.00;;;;5136564;28;20201;-78
2022/05/04 10:14:10;;;;;;;2.17;1.60;;;17.40;59.60;17.00;98284.00;;;;5136551;28;20196;-78
2022/05/04 10:16:52;;;;;;;1.47;1.37;;;17.40;60.00;17.20;98282.00;;;;5136332;28;20222;-77
2022/05/04 10:19:27;;;;;;;1.27;1.27;;;;;17.00;98278.00;;;;5136438;28;20648;-77
2022/05/04 10:21:59;;;;;;;1.80;1.70;;;17.50;58.30;16.90;98283.00;;;;5136342;28;20229;-78
2022/05/04 10:24:29;;;;;;;1.10;1.10;;;17.40;60.30;17.00;98280.00;;;;5136373;28;20189;-77
2022/05/04 10:27:17;;;;;;;1.83;1.67;;;17.40;62.30;17.30;98283.00;;;;5136309;28;20221;-78
2022/05/04 10:32:35;;;;;;;1.43;1.33;;;17.60;60.10;17.40;98271.00;;;;5136011;27;20215;-77
2022/05/04 10:35:13;;;;;;;1.57;1.33;;;17.80;59.70;17.60;98269.00;;;;5136243;28;20204;-79
2022/05/04 10:38:21;;;;;;;0.90;0.90;;;17.90;59.10;17.50;98261.00;;;;5136162;28;20213;-78
2022/05/04 10:40:54;;;;;;;1.03;1.03;;;18.00;61.20;17.70;98256.00;;;;5136247;28;20301;-79
2022/05/04 10:43:36;;;;;;;1.10;1.10;;;18.10;59.00;17.80;98252.00;;;;5136338;28;20193;-77
2022/05/04 10:46:07;;;;;;;0.90;0.90;;;18.20;56.80;17.80;98256.00;;;;5136067;28;20235;-78
2022/05/04 10:48:42;;;;;;;0.83;0.83;;;18.20;57.40;18.10;98256.00;;;;5135991;28;20280;-78
2022/05/04 10:51:18;;;;;;;0.87;0.87;;;18.40;56.60;18.20;98255.00;;;;5135746;28;20224;-78
2022/05/04 10:53:49;;;;;;;2.60;1.90;;;18.60;58.80;18.40;98256.00;;;;5135767;28;20205;-78
2022/05/04 10:56:20;;;;;;;1.20;1.20;;;18.70;55.60;18.40;98254.00;;;;5135900;28;20235;-78
2022/05/04 10:58:59;;;;;;;1.17;1.17;;;18.70;53.70;18.30;98244.00;;;;5135704;28;20269;-78
2022/05/04 11:01:28;;;;;;;1.63;1.53;;;18.80;51.70;18.40;98246.00;;;;5117508;28;20293;-78
2022/05/04 11:04:18;;;;;;;1.80;1.70;;;18.80;52.00;18.60;98243.00;;;;5135612;28;20277;-77
2022/05/04 11:06:54;;;;;;;1.30;1.20;;;18.90;52.50;18.80;98241.00;;;;5135604;28;20213;-78
2022/05/04 11:09:24;;;;;;;1.07;1.07;;;19.10;52.20;19.00;98237.00;;;;5135623;28;20211;-78
2022/05/04 11:11:52;;;;;;;1.90;1.53;;;19.40;55.20;18.90;98231.00;;;;5135505;28;20317;-78
2022/05/04 11:14:22;;;;;;;1.27;1.20;;;19.30;48.80;19.30;98228.00;;;;5135430;28;20225;-78
2022/05/04 11:16:51;;;;;;;1.20;1.20;;;19.60;50.20;19.60;98225.00;;;;5135883;28;20287;-78
2022/05/04 11:19:22;;;;;;;1.00;1.00;;;;;20.10;98223.00;;;;5135415;28;20686;-78
2022/05/04 11:21:50;;;;;;;1.27;1.27;;;20.20;52.30;20.40;98230.00;;;;5135309;28;20217;-78
2022/05/04 11:24:18;;;;;;;4.60;0.90;;;20.60;49.90;20.40;98230.00;;;;5135320;28;20217;-79
2022/05/04 11:26:50;;;;;;;1.33;1.27;;;20.60;47.90;20.60;98217.00;;;;5135280;28;20220;-78
2022/05/04 11:29:23;;;;;;;1.17;1.17;;;20.80;43.20;20.60;98220.00;;;;5135358;28;20216;-78
2022/05/04 11:31:54;;;;;;;0.70;0.70;;;20.90;45.20;21.00;98226.00;;;;5135254;28;20294;-79
2022/05/04 11:34:23;;;;;;;0.90;0.90;;;21.20;43.10;21.00;98216.00;;;;5135399;28;20197;-78
2022/05/04 11:36:51;;;;;;;2.70;1.80;;;21.30;42.20;21.10;98221.00;;;;5135138;28;20221;-79
2022/05/04 11:39:20;;;;;;;0.80;0.80;;;21.40;41.70;21.30;98207.00;;;;5135304;28;20270;-78
2022/05/04 11:41:51;;;;;;;1.20;1.13;;;21.50;42.60;21.60;98212.00;;;;5135173;28;20229;-79
2022/05/04 11:44:21;;;;;;;0.90;0.90;;;21.80;39.30;21.90;98204.00;;;;5134369;27;20197;-78
2022/05/04 11:46:48;;;;;;;0.68;0.68;;;22.10;37.50;21.90;98199.00;;;;5135004;28;20220;-79